Time;durP1;ratioP1;P1;durP2;ratioP2;P2;SDS_P1;SDS_P2;PMS_P1;PMS_P2;Temp;Humidity;BMP_temperature;BMP_pressure;BME280_temperature;BME280_humidity;BME280_pressure;Samples;Min_cycle;Max_cycle;Signal;HPM_P1;HPM_P2
2023/03/03 00:00:17;;;;;;;62.93;32.03;;;1.40;99.90;;;;;;5003070;28;20597;-85
2023/03/03 00:02:43;;;;;;;58.30;30.90;;;1.40;99.90;;;;;;5003906;28;20203;-84
2023/03/03 00:05:09;;;;;;;59.87;31.43;;;1.40;99.90;;;;;;5004587;28;20239;-84
2023/03/03 00:07:35;;;;;;;52.23;29.73;;;1.40;99.90;;;;;;5004686;28;20180;-84
2023/03/03 00:10:00;;;;;;;56.53;32.63;;;1.30;99.90;;;;;;5004603;28;20203;-84
2023/03/03 00:12:29;;;;;;;57.70;30.60;;;1.30;99.90;;;;;;5004818;28;20664;-84
2023/03/03 00:14:55;;;;;;;60.47;30.80;;;1.30;99.90;;;;;;5021747;28;20180;-84
2023/03/03 00:17:27;;;;;;;56.90;30.70;;;1.40;99.90;;;;;;5004649;28;20184;-85
2023/03/03 00:19:53;;;;;;;53.07;30.03;;;1.40;99.90;;;;;;5004780;28;20172;-85
2023/03/03 00:22:34;;;;;;;58.43;31.33;;;1.30;99.90;;;;;;5004017;28;20223;-84
2023/03/03 00:25:23;;;;;;;60.80;31.67;;;1.30;99.90;;;;;;5002665;28;20207;-84
2023/03/03 00:27:49;;;;;;;48.80;28.87;;;1.30;99.90;;;;;;5005936;28;20231;-85
2023/03/03 00:30:26;;;;;;;58.90;31.50;;;1.30;99.90;;;;;;5005390;28;20600;-84
2023/03/03 00:32:54;;;;;;;52.37;29.07;;;1.30;99.90;;;;;;5022577;28;20192;-84
2023/03/03 00:35:37;;;;;;;50.53;29.00;;;1.30;99.90;;;;;;5022886;28;20172;-85
2023/03/03 00:38:18;;;;;;;52.53;29.50;;;1.30;99.90;;;;;;5004544;28;20258;-84
2023/03/03 00:40:45;;;;;;;51.20;28.90;;;1.40;99.90;;;;;;5004623;28;20251;-85
2023/03/03 00:43:18;;;;;;;52.30;28.37;;;1.40;99.90;;;;;;5004273;28;20218;-84
2023/03/03 00:45:47;;;;;;;50.43;28.47;;;1.40;99.90;;;;;;5004768;28;20585;-84
2023/03/03 00:48:39;;;;;;;54.50;30.53;;;1.40;99.90;;;;;;5022485;28;20182;-84
2023/03/03 00:51:28;;;;;;;56.53;29.77;;;1.30;99.90;;;;;;5004862;28;20183;-84
2023/03/03 00:53:55;;;;;;;49.80;28.27;;;1.40;99.90;;;;;;5004452;28;20207;-84
2023/03/03 00:56:21;;;;;;;54.17;28.40;;;1.30;99.90;;;;;;5004401;28;20188;-84
2023/03/03 00:58:47;;;;;;;47.80;29.57;;;1.30;99.90;;;;;;5004717;28;20195;-84
2023/03/03 01:01:13;;;;;;;48.40;27.80;;;1.30;99.90;;;;;;5005039;28;20180;-84
2023/03/03 01:03:40;;;;;;;51.87;29.67;;;1.30;99.90;;;;;;5004824;28;20629;-84
2023/03/03 01:06:06;;;;;;;49.67;28.47;;;1.40;99.90;;;;;;5003724;28;20230;-84
2023/03/03 01:08:32;;;;;;;48.83;29.33;;;1.40;99.90;;;;;;5004358;28;20207;-85
2023/03/03 01:11:02;;;;;;;52.37;28.07;;;1.40;99.90;;;;;;5022210;28;20176;-85
2023/03/03 01:13:34;;;;;;;49.77;28.70;;;1.40;99.90;;;;;;5004494;28;20761;-84
2023/03/03 01:16:02;;;;;;;49.73;27.00;;;1.40;99.90;;;;;;5006184;28;20243;-84
2023/03/03 01:18:28;;;;;;;56.37;30.47;;;1.40;99.90;;;;;;5024455;28;20176;-84
2023/03/03 01:20:54;;;;;;;46.17;27.63;;;1.30;99.90;;;;;;5006457;28;20230;-84
2023/03/03 01:23:19;;;;;;;45.33;26.87;;;1.30;99.90;;;;;;5006135;28;20215;-85
2023/03/03 01:25:45;;;;;;;49.50;28.87;;;1.30;99.90;;;;;;5005379;28;20176;-83
2023/03/03 01:28:11;;;;;;;47.83;27.13;;;1.30;99.90;;;;;;5005493;28;20186;-83
2023/03/03 01:30:37;;;;;;;47.67;28.90;;;1.30;99.90;;;;;;5005663;28;20537;-83
2023/03/03 01:33:03;;;;;;;46.27;28.10;;;1.20;99.90;;;;;;5005865;28;20199;-84
2023/03/03 01:35:28;;;;;;;50.27;27.97;;;1.20;99.90;;;;;;5005869;28;20187;-84
2023/03/03 01:37:54;;;;;;;47.90;28.67;;;1.20;99.90;;;;;;5006570;28;20207;-84
2023/03/03 01:40:26;;;;;;;57.67;29.13;;;1.30;99.90;;;;;;5024058;28;20698;-84
2023/03/03 01:42:52;;;;;;;45.37;27.63;;;1.30;99.90;;;;;;5006583;28;20234;-84
2023/03/03 01:45:19;;;;;;;46.23;27.60;;;1.30;99.90;;;;;;5006469;28;20211;-84
2023/03/03 01:48:00;;;;;;;52.77;27.23;;;1.30;99.90;;;;;;5023928;28;20180;-84
2023/03/03 01:50:43;;;;;;;47.80;28.00;;;1.20;99.90;;;;;;5006194;28;20187;-85
2023/03/03 01:53:17;;;;;;;51.50;27.77;;;1.20;99.90;;;;;;5006195;28;20559;-85
2023/03/03 01:55:45;;;;;;;45.10;27.40;;;1.20;99.90;;;;;;5005841;28;20180;-85
2023/03/03 01:58:27;;;;;;;48.30;28.03;;;1.20;99.90;;;;;;5006726;28;20184;-84
2023/03/03 02:01:00;;;;;;;54.43;28.93;;;1.10;99.90;;;;;;5023244;28;20244;-84
2023/03/03 02:03:27;;;;;;;46.73;27.40;;;1.10;99.90;;;;;;5004599;28;20218;-84
2023/03/03 02:05:57;;;;;;;53.70;28.40;;;1.10;99.90;;;;;;5006544;28;20187;-84
2023/03/03 02:08:30;;;;;;;57.77;28.83;;;1.10;99.90;;;;;;5007256;28;20625;-84
2023/03/03 02:10:56;;;;;;;50.27;28.57;;;1.10;99.90;;;;;;5023830;28;20577;-84
2023/03/03 02:13:22;;;;;;;53.83;28.07;;;1.10;99.90;;;;;;4999654;28;20290;-83
2023/03/03 02:15:48;;;;;;;47.20;27.97;;;1.10;99.90;;;;;;5000522;28;20215;-84
2023/03/03 02:18:17;;;;;;;51.07;28.43;;;1.20;99.90;;;;;;5001228;28;20183;-84
2023/03/03 02:21:03;;;;;;;49.40;29.67;;;1.20;99.90;;;;;;5002666;28;20230;-84
2023/03/03 02:23:44;;;;;;;50.57;29.80;;;1.20;99.90;;;;;;4992468;28;20412;-84
2023/03/03 02:26:16;;;;;;;52.93;28.77;;;1.20;99.90;;;;;;5003474;28;20171;-83
2023/03/03 02:28:42;;;;;;;51.73;29.50;;;1.20;99.90;;;;;;5004388;28;20230;-83
2023/03/03 02:31:12;;;;;;;50.73;28.00;;;1.20;99.90;;;;;;5004720;28;20180;-84
2023/03/03 02:33:42;;;;;;;51.97;29.07;;;1.20;99.90;;;;;;5022197;28;20199;-83
2023/03/03 02:36:13;;;;;;;51.90;29.13;;;1.20;99.90;;;;;;5005373;28;20263;-84
2023/03/03 02:38:50;;;;;;;51.13;28.13;;;1.30;99.90;;;;;;5005245;28;20183;-83
2023/03/03 02:41:28;;;;;;;50.77;27.53;;;1.30;99.90;;;;;;5006399;28;20180;-84
2023/03/03 02:44:07;;;;;;;54.67;30.00;;;1.20;99.90;;;;;;5023391;28;20211;-84
2023/03/03 02:46:36;;;;;;;50.07;28.13;;;1.30;99.90;;;;;;5006445;28;20179;-83
2023/03/03 02:49:04;;;;;;;51.33;28.57;;;1.30;99.90;;;;;;5006399;28;20211;-83
2023/03/03 02:51:30;;;;;;;48.77;27.37;;;1.30;99.90;;;;;;5005642;28;20190;-84
2023/03/03 02:53:56;;;;;;;51.80;28.83;;;1.30;99.90;;;;;;5006658;28;20200;-83
2023/03/03 02:56:22;;;;;;;55.83;27.93;;;1.30;99.90;;;;;;5007736;28;20215;-84
2023/03/03 02:58:48;;;;;;;54.73;27.90;;;1.30;99.90;;;;;;5008889;28;20247;-85
2023/03/03 03:01:14;;;;;;;51.80;28.27;;;1.30;99.90;;;;;;5009105;28;20191;-83
2023/03/03 03:03:40;;;;;;;50.30;28.33;;;1.20;99.90;;;;;;5007972;28;20215;-84
2023/03/03 03:06:06;;;;;;;51.60;27.50;;;1.20;99.90;;;;;;5008850;28;20184;-85
2023/03/03 03:08:32;;;;;;;47.40;26.23;;;1.20;99.90;;;;;;5008213;28;20247;-85
2023/03/03 03:10:57;;;;;;;50.07;28.33;;;1.20;99.90;;;;;;5019634;28;20207;-84
2023/03/03 03:13:24;;;;;;;52.60;29.50;;;1.20;99.90;;;;;;5017451;28;20664;-84
2023/03/03 03:15:50;;;;;;;51.20;27.90;;;1.10;99.90;;;;;;5001733;28;20252;-85
2023/03/03 03:18:16;;;;;;;46.40;25.77;;;1.10;99.90;;;;;;5002371;28;20208;-84
2023/03/03 03:20:42;;;;;;;48.80;27.83;;;1.10;99.90;;;;;;5000938;28;20180;-84
2023/03/03 03:23:09;;;;;;;51.20;27.87;;;1.00;99.90;;;;;;5001702;28;20273;-84
2023/03/03 03:25:36;;;;;;;49.70;27.00;;;1.00;99.90;;;;;;5002492;28;20180;-84
2023/03/03 03:28:02;;;;;;;52.03;26.13;;;0.90;99.90;;;;;;5021508;28;20691;-84
2023/03/03 03:30:28;;;;;;;50.10;27.37;;;0.90;99.90;;;;;;5004914;28;20191;-84
2023/03/03 03:32:54;;;;;;;47.57;25.20;;;0.90;99.90;;;;;;5007851;28;20197;-84
2023/03/03 03:35:19;;;;;;;44.27;25.97;;;0.90;99.90;;;;;;5009021;28;20180;-84
2023/03/03 03:37:45;;;;;;;47.17;26.17;;;0.90;99.90;;;;;;5008619;28;20194;-85
2023/03/03 03:40:11;;;;;;;49.47;25.43;;;0.90;99.90;;;;;;5007673;28;20188;-86
2023/03/03 03:42:38;;;;;;;48.20;25.23;;;0.90;99.90;;;;;;5008029;28;20299;-84
2023/03/03 03:45:04;;;;;;;49.80;25.30;;;0.90;99.90;;;;;;5008425;28;20254;-85
2023/03/03 03:47:30;;;;;;;44.27;23.77;;;0.90;99.90;;;;;;5007357;28;20175;-83
2023/03/03 03:49:56;;;;;;;50.17;26.60;;;0.90;99.90;;;;;;5006141;28;20650;-83
2023/03/03 03:52:22;;;;;;;44.63;25.07;;;0.90;99.90;;;;;;5006189;28;20297;-83
2023/03/03 03:54:47;;;;;;;49.13;26.40;;;0.80;99.90;;;;;;5006715;28;20163;-83
2023/03/03 03:57:13;;;;;;;50.63;25.40;;;0.80;99.90;;;;;;5024123;28;20171;-83
2023/03/03 03:59:39;;;;;;;49.30;26.77;;;0.80;99.90;;;;;;5005612;28;20183;-83
2023/03/03 04:02:04;;;;;;;41.03;26.80;;;0.80;99.90;;;;;;5005994;28;20208;-83
2023/03/03 04:04:30;;;;;;;49.87;25.77;;;0.80;99.90;;;;;;5006319;28;20202;-84
2023/03/03 04:06:56;;;;;;;52.77;27.93;;;0.80;99.90;;;;;;5008361;28;20195;-84
2023/03/03 04:09:22;;;;;;;49.10;26.00;;;0.80;99.90;;;;;;5009795;28;20176;-84
2023/03/03 04:11:48;;;;;;;52.83;26.83;;;0.80;99.90;;;;;;5009497;28;20179;-84
2023/03/03 04:14:13;;;;;;;47.93;25.97;;;0.80;99.90;;;;;;5026243;28;20633;-84
2023/03/03 04:16:39;;;;;;;55.63;28.43;;;0.90;99.90;;;;;;5009559;28;20206;-84
2023/03/03 04:19:05;;;;;;;49.40;26.73;;;0.90;99.90;;;;;;5008007;28;20199;-83
2023/03/03 04:21:30;;;;;;;48.10;25.90;;;0.90;99.90;;;;;;5008007;28;20260;-84
2023/03/03 04:23:56;;;;;;;52.33;27.23;;;0.80;99.90;;;;;;5026683;28;20226;-84
2023/03/03 04:26:22;;;;;;;51.23;27.37;;;0.90;99.90;;;;;;5008253;28;20255;-83
2023/03/03 04:28:48;;;;;;;56.57;27.77;;;0.90;99.90;;;;;;5008281;28;20242;-82
2023/03/03 04:31:13;;;;;;;54.53;26.87;;;0.80;99.90;;;;;;5008143;28;20186;-83
2023/03/03 04:33:39;;;;;;;50.43;27.23;;;0.90;99.90;;;;;;5008026;28;20298;-83
2023/03/03 04:36:05;;;;;;;52.83;28.57;;;0.90;99.90;;;;;;5025706;28;20179;-83
2023/03/03 04:38:32;;;;;;;49.27;27.27;;;0.90;99.90;;;;;;5008023;28;20190;-83
2023/03/03 04:40:58;;;;;;;54.87;27.57;;;0.90;99.90;;;;;;5007801;28;20695;-83
2023/03/03 04:43:23;;;;;;;53.93;28.00;;;0.90;99.90;;;;;;5007139;28;20274;-83
2023/03/03 04:45:49;;;;;;;54.27;28.70;;;0.90;99.90;;;;;;5027868;28;20186;-83
2023/03/03 04:48:15;;;;;;;48.00;26.20;;;0.90;99.90;;;;;;5010050;28;20239;-83
2023/03/03 04:50:41;;;;;;;55.53;28.73;;;0.90;99.90;;;;;;5009460;28;20646;-83
2023/03/03 04:53:07;;;;;;;50.00;26.17;;;0.90;99.90;;;;;;5009957;28;20196;-83
2023/03/03 04:55:35;;;;;;;60.47;28.93;;;0.90;99.90;;;;;;5026468;28;20178;-83
2023/03/03 04:58:01;;;;;;;52.07;27.27;;;0.90;99.90;;;;;;5026293;28;20295;-83
2023/03/03 05:00:27;;;;;;;54.47;27.87;;;0.90;99.90;;;;;;5008897;28;20175;-83
2023/03/03 05:02:53;;;;;;;51.90;27.97;;;1.00;99.90;;;;;;5009102;28;20196;-83
2023/03/03 05:05:18;;;;;;;49.63;27.50;;;1.00;99.90;;;;;;5026511;28;20219;-84
2023/03/03 05:07:44;;;;;;;52.13;26.33;;;1.00;99.90;;;;;;5008480;28;20176;-84
2023/03/03 05:10:10;;;;;;;48.83;27.50;;;1.00;99.90;;;;;;5007506;28;20183;-83
2023/03/03 05:12:36;;;;;;;56.87;28.57;;;1.10;99.90;;;;;;5024700;28;20197;-83
2023/03/03 05:15:02;;;;;;;52.33;26.53;;;1.00;99.90;;;;;;5007670;28;20192;-83
2023/03/03 05:17:28;;;;;;;53.70;28.07;;;1.00;99.90;;;;;;5025943;28;20176;-83
2023/03/03 05:19:56;;;;;;;51.67;27.63;;;1.10;99.90;;;;;;5008309;28;20179;-83
2023/03/03 05:22:22;;;;;;;50.07;28.60;;;1.10;99.90;;;;;;5007433;28;20219;-83
2023/03/03 05:24:48;;;;;;;52.70;27.53;;;1.10;99.90;;;;;;5026082;28;20211;-84
2023/03/03 05:27:15;;;;;;;54.33;27.80;;;1.00;99.90;;;;;;5008259;28;20171;-84
2023/03/03 05:29:41;;;;;;;53.07;27.47;;;1.00;99.90;;;;;;5008305;28;20187;-83
2023/03/03 05:32:07;;;;;;;57.77;28.23;;;1.00;99.90;;;;;;5008472;28;20175;-84
2023/03/03 05:34:32;;;;;;;56.20;28.93;;;1.00;99.90;;;;;;5009725;28;20207;-83
2023/03/03 05:36:58;;;;;;;52.77;27.00;;;1.00;99.90;;;;;;5009623;28;20234;-83
2023/03/03 05:39:24;;;;;;;47.43;27.20;;;1.00;99.90;;;;;;5027821;28;20557;-83
2023/03/03 05:41:50;;;;;;;56.10;28.17;;;1.00;99.90;;;;;;5008897;28;20672;-84
2023/03/03 05:44:16;;;;;;;51.07;28.27;;;1.00;99.90;;;;;;5007743;28;20559;-83
2023/03/03 05:46:41;;;;;;;50.90;27.67;;;1.00;99.90;;;;;;5008369;28;20172;-83
2023/03/03 05:49:07;;;;;;;50.77;26.97;;;1.00;99.90;;;;;;5009428;28;20183;-83
2023/03/03 05:51:33;;;;;;;54.67;27.00;;;1.10;99.90;;;;;;5025571;28;20250;-82
2023/03/03 05:53:59;;;;;;;50.83;27.27;;;1.10;99.90;;;;;;4999580;28;20302;-83
2023/03/03 05:56:25;;;;;;;54.70;27.40;;;1.10;99.90;;;;;;5020704;28;20194;-83
2023/03/03 05:58:50;;;;;;;56.20;27.47;;;1.10;99.90;;;;;;5002105;28;20629;-83
2023/03/03 06:01:16;;;;;;;64.50;28.53;;;1.10;99.90;;;;;;5002200;28;20191;-83
2023/03/03 06:03:42;;;;;;;59.50;29.10;;;1.00;99.90;;;;;;5004751;28;20246;-83
2023/03/03 06:06:08;;;;;;;51.40;26.57;;;1.00;99.90;;;;;;5007027;28;20176;-83
2023/03/03 06:08:33;;;;;;;53.67;28.00;;;1.00;99.90;;;;;;5025689;28;20235;-83
2023/03/03 06:10:59;;;;;;;57.80;28.70;;;1.00;99.90;;;;;;5007759;28;20183;-83
2023/03/03 06:13:26;;;;;;;62.07;29.23;;;1.00;99.90;;;;;;5006317;28;20214;-83
2023/03/03 06:15:51;;;;;;;64.27;30.13;;;1.00;99.90;;;;;;5006073;28;20187;-83
2023/03/03 06:18:17;;;;;;;56.53;27.87;;;1.00;99.90;;;;;;5006279;28;20179;-83
2023/03/03 06:20:43;;;;;;;62.43;30.37;;;1.10;99.90;;;;;;5006932;28;20176;-83
2023/03/03 06:23:09;;;;;;;55.10;27.37;;;1.00;99.90;;;;;;5006948;28;20666;-83
2023/03/03 06:25:34;;;;;;;55.37;27.17;;;1.00;99.90;;;;;;5016937;28;20226;-82
2023/03/03 06:28:01;;;;;;;50.20;26.30;;;1.10;99.90;;;;;;4999099;28;20246;-83
2023/03/03 06:30:27;;;;;;;50.63;26.63;;;1.10;99.90;;;;;;5019968;28;20580;-83
2023/03/03 06:32:53;;;;;;;48.90;25.87;;;1.10;99.90;;;;;;5002791;28;20203;-83
2023/03/03 06:35:19;;;;;;;54.27;27.50;;;1.10;99.90;;;;;;5004619;28;20255;-83
2023/03/03 06:37:45;;;;;;;49.83;26.60;;;1.10;99.90;;;;;;5005596;28;20250;-83
2023/03/03 06:40:11;;;;;;;53.50;28.97;;;1.10;99.90;;;;;;5007207;28;20278;-83
2023/03/03 06:42:37;;;;;;;58.80;26.60;;;1.10;99.90;;;;;;5006583;28;20291;-83
2023/03/03 06:45:03;;;;;;;52.20;27.13;;;1.10;99.90;;;;;;5007282;28;20218;-84
2023/03/03 06:47:29;;;;;;;52.80;26.90;;;1.20;99.90;;;;;;5026596;28;20207;-86
2023/03/03 06:49:54;;;;;;;55.87;28.33;;;1.20;99.90;;;;;;5004407;28;20176;-86
2023/03/03 06:52:24;;;;;;;45.93;26.40;;;1.10;99.90;;;;;;4998054;28;20301;-86
2023/03/03 06:54:54;;;;;;;51.07;27.17;;;1.10;99.90;;;;;;4998448;28;20195;-85
2023/03/03 06:57:31;;;;;;;55.90;26.57;;;1.10;99.90;;;;;;5002702;28;20186;-85
2023/03/03 07:00:10;;;;;;;44.60;24.23;;;1.10;99.90;;;;;;5013388;28;20207;-84
2023/03/03 07:02:35;;;;;;;45.93;24.97;;;1.10;99.90;;;;;;5025640;28;20206;-85
2023/03/03 07:05:05;;;;;;;42.27;23.93;;;1.10;99.90;;;;;;5010075;28;20207;-85
2023/03/03 07:07:30;;;;;;;44.43;25.03;;;1.10;99.90;;;;;;5009896;28;20544;-85
2023/03/03 07:09:56;;;;;;;49.37;25.60;;;1.10;99.90;;;;;;5008957;28;20186;-85
2023/03/03 07:12:29;;;;;;;46.30;26.00;;;1.10;99.90;;;;;;5009378;28;20200;-85
2023/03/03 07:15:11;;;;;;;42.00;24.10;;;1.20;99.90;;;;;;5008708;28;20647;-85
2023/03/03 07:17:41;;;;;;;39.90;22.70;;;1.20;99.90;;;;;;5008233;28;20198;-85
2023/03/03 07:20:35;;;;;;;41.23;24.30;;;1.20;99.90;;;;;;5007332;28;20660;-85
2023/03/03 07:23:20;;;;;;;46.83;23.83;;;1.30;99.90;;;;;;4998791;28;20751;-84
2023/03/03 07:25:45;;;;;;;43.30;23.63;;;1.20;99.90;;;;;;5025195;28;20576;-84
2023/03/03 07:28:32;;;;;;;40.17;22.73;;;1.20;99.90;;;;;;5024189;28;20255;-85
2023/03/03 07:30:58;;;;;;;41.87;23.97;;;1.20;99.90;;;;;;5023966;28;20171;-85
2023/03/03 07:33:44;;;;;;;46.07;25.00;;;1.20;99.90;;;;;;5004596;28;20253;-85
2023/03/03 07:36:33;;;;;;;41.40;24.57;;;1.10;99.90;;;;;;5004322;28;20240;-85
2023/03/03 07:39:04;;;;;;;46.40;24.50;;;1.10;99.90;;;;;;5004548;28;20218;-85
2023/03/03 07:41:33;;;;;;;43.03;24.27;;;1.20;99.90;;;;;;5002973;28;20210;-84
2023/03/03 07:44:03;;;;;;;40.43;24.47;;;1.20;99.90;;;;;;5004347;28;20212;-84
2023/03/03 07:46:42;;;;;;;42.77;25.43;;;1.10;99.90;;;;;;5004477;28;20175;-84
2023/03/03 07:49:20;;;;;;;48.43;25.57;;;1.20;99.90;;;;;;5003094;28;20176;-84
2023/03/03 07:51:46;;;;;;;44.50;25.33;;;1.10;99.90;;;;;;5003360;28;20175;-84
2023/03/03 07:54:27;;;;;;;44.27;25.80;;;1.20;99.90;;;;;;5020997;28;20200;-84
2023/03/03 07:57:02;;;;;;;50.73;26.60;;;1.20;99.90;;;;;;5021536;28;20609;-84
2023/03/03 07:59:27;;;;;;;47.50;24.60;;;1.20;99.90;;;;;;5030558;28;20150;-84
2023/03/03 08:01:56;;;;;;;47.27;24.87;;;1.30;99.90;;;;;;5008170;28;20216;-84
2023/03/03 08:04:46;;;;;;;52.27;26.73;;;1.30;99.90;;;;;;5025000;28;20542;-84
2023/03/03 08:07:16;;;;;;;48.50;24.90;;;1.30;99.90;;;;;;5006391;28;20184;-84
2023/03/03 08:09:43;;;;;;;41.03;24.57;;;1.30;99.90;;;;;;5005806;28;20229;-84
2023/03/03 08:12:18;;;;;;;52.83;26.70;;;1.40;99.90;;;;;;5004665;28;20188;-84
2023/03/03 08:14:44;;;;;;;52.43;26.03;;;1.40;99.90;;;;;;5022553;28;20159;-84
2023/03/03 08:17:19;;;;;;;50.83;25.17;;;1.40;99.90;;;;;;5004255;28;20184;-84
2023/03/03 08:19:45;;;;;;;52.03;27.33;;;1.50;99.90;;;;;;5004861;28;20564;-85
2023/03/03 08:22:37;;;;;;;50.93;26.03;;;1.50;99.90;;;;;;5004813;28;20330;-85
2023/03/03 08:25:03;;;;;;;47.77;25.60;;;1.40;99.90;;;;;;5002874;28;20215;-85
2023/03/03 08:27:29;;;;;;;50.20;26.47;;;1.40;99.90;;;;;;5000782;28;20184;-85
2023/03/03 08:29:54;;;;;;;53.30;26.47;;;1.40;99.90;;;;;;5002540;28;20184;-85
2023/03/03 08:32:20;;;;;;;46.53;23.80;;;1.40;99.90;;;;;;5020293;28;20562;-84
2023/03/03 08:34:46;;;;;;;47.53;24.80;;;1.40;99.90;;;;;;5020013;28;20176;-84
2023/03/03 08:37:11;;;;;;;51.83;26.03;;;1.40;99.90;;;;;;5020117;28;20269;-84
2023/03/03 08:39:37;;;;;;;50.03;26.00;;;1.50;99.90;;;;;;5001624;28;20653;-84
2023/03/03 08:42:03;;;;;;;51.53;24.77;;;1.50;99.90;;;;;;5000241;28;20222;-84
2023/03/03 08:44:29;;;;;;;50.50;25.63;;;1.50;99.90;;;;;;5017808;28;20547;-84
2023/03/03 08:46:54;;;;;;;55.00;26.27;;;1.60;99.90;;;;;;5000928;28;20623;-84
2023/03/03 08:49:20;;;;;;;49.03;26.43;;;1.60;99.90;;;;;;5001216;28;20209;-84
2023/03/03 08:51:46;;;;;;;46.60;24.37;;;1.60;99.90;;;;;;5002067;28;20176;-84
2023/03/03 08:54:12;;;;;;;50.47;26.30;;;1.60;99.90;;;;;;5000181;28;20199;-84
2023/03/03 08:56:38;;;;;;;56.07;26.73;;;1.50;99.90;;;;;;5000700;28;20672;-85
2023/03/03 08:59:04;;;;;;;47.83;24.67;;;1.50;99.90;;;;;;5000509;28;20186;-85
2023/03/03 09:01:34;;;;;;;51.47;25.80;;;1.60;99.90;;;;;;5000413;28;20237;-85
2023/03/03 09:03:59;;;;;;;53.30;27.03;;;1.60;99.90;;;;;;5000199;28;20203;-84
2023/03/03 09:06:25;;;;;;;53.03;26.10;;;1.70;99.90;;;;;;5018181;28;20159;-84
2023/03/03 09:08:51;;;;;;;47.73;23.87;;;1.70;99.90;;;;;;5000166;28;20187;-84
2023/03/03 09:11:26;;;;;;;45.77;25.37;;;1.70;99.90;;;;;;5002021;28;20172;-84
2023/03/03 09:14:10;;;;;;;49.53;24.07;;;1.70;99.90;;;;;;5000342;28;20199;-84
2023/03/03 09:16:42;;;;;;;50.03;26.00;;;1.70;99.90;;;;;;5018043;28;20164;-84
2023/03/03 09:19:26;;;;;;;48.53;26.10;;;1.80;99.90;;;;;;5000920;28;20184;-84
2023/03/03 09:21:54;;;;;;;51.40;25.77;;;1.80;99.90;;;;;;5001465;28;20238;-84
2023/03/03 09:24:34;;;;;;;41.77;23.97;;;1.80;99.90;;;;;;4998988;28;20669;-84
2023/03/03 09:26:59;;;;;;;48.43;25.03;;;1.90;99.90;;;;;;4999838;28;20237;-84
2023/03/03 09:29:29;;;;;;;47.20;23.93;;;1.90;99.90;;;;;;4998206;28;20176;-84
2023/03/03 09:31:57;;;;;;;43.83;23.43;;;2.00;99.90;;;;;;5015889;28;20568;-84
2023/03/03 09:34:24;;;;;;;51.17;25.13;;;2.00;99.90;;;;;;4998921;28;20176;-85
2023/03/03 09:36:52;;;;;;;51.83;26.97;;;2.10;99.90;;;;;;4998241;28;20190;-85
2023/03/03 09:39:25;;;;;;;46.90;24.27;;;2.10;99.90;;;;;;4997702;28;20184;-84
2023/03/03 09:42:00;;;;;;;49.93;24.93;;;2.10;99.90;;;;;;4997846;28;20168;-84
2023/03/03 09:44:41;;;;;;;47.57;23.53;;;2.10;99.90;;;;;;4997476;28;20291;-85
2023/03/03 09:47:36;;;;;;;45.97;24.13;;;2.10;99.90;;;;;;4998270;28;20175;-85
2023/03/03 09:50:36;;;;;;;42.77;24.00;;;2.10;99.90;;;;;;5016230;28;20164;-85
2023/03/03 09:53:27;;;;;;;46.53;23.57;;;2.20;99.90;;;;;;4979448;28;20573;-85
2023/03/03 09:55:58;;;;;;;41.63;23.50;;;2.20;99.90;;;;;;5015817;28;20218;-85
2023/03/03 09:58:53;;;;;;;53.73;26.83;;;2.20;99.90;;;;;;4998990;28;20511;-85
2023/03/03 10:01:43;;;;;;;49.90;23.93;;;2.20;99.90;;;;;;4998217;28;20179;-85
2023/03/03 10:04:15;;;;;;;46.53;23.33;;;2.20;99.90;;;;;;5017236;28;20788;-82
2023/03/03 10:06:51;;;;;;;41.00;21.93;;;2.20;99.90;;;;;;4997949;28;20160;-81
2023/03/03 10:09:47;;;;;;;37.73;22.73;;;2.20;99.90;;;;;;4997620;28;20164;-81
2023/03/03 10:12:52;;;;;;;42.63;23.47;;;2.20;99.90;;;;;;4997353;28;20203;-82
2023/03/03 10:15:58;;;;;;;47.27;24.67;;;2.30;99.90;;;;;;4998102;28;20179;-82
2023/03/03 10:18:40;;;;;;;44.27;24.10;;;2.30;99.90;;;;;;4997445;28;20192;-82
2023/03/03 10:21:22;;;;;;;46.00;24.10;;;2.30;99.90;;;;;;4997536;28;20172;-82
2023/03/03 10:24:06;;;;;;;40.73;21.60;;;2.40;99.90;;;;;;5015026;28;20208;-82
2023/03/03 10:26:41;;;;;;;43.23;22.00;;;2.40;99.90;;;;;;4997313;28;20648;-82
2023/03/03 10:29:22;;;;;;;44.83;22.40;;;2.50;99.90;;;;;;5014590;28;20198;-82
2023/03/03 10:32:34;;;;;;;45.40;23.07;;;2.50;99.90;;;;;;4997202;28;20171;-81
2023/03/03 10:35:19;;;;;;;42.70;23.50;;;2.50;99.90;;;;;;4980065;28;20196;-81
2023/03/03 10:38:06;;;;;;;45.43;22.87;;;2.50;99.90;;;;;;4999480;28;20644;-81
2023/03/03 10:40:55;;;;;;;41.67;21.97;;;2.60;99.90;;;;;;5002545;28;20178;-81
2023/03/03 10:43:48;;;;;;;40.23;22.00;;;2.60;99.90;;;;;;5019954;28;20226;-82
2023/03/03 10:46:38;;;;;;;43.77;23.00;;;2.70;99.90;;;;;;5002480;28;20192;-83
2023/03/03 10:49:04;;;;;;;37.43;21.77;;;2.60;99.90;;;;;;5020115;28;20168;-83
2023/03/03 10:52:15;;;;;;;39.37;21.23;;;2.60;99.90;;;;;;5020419;28;20259;-82
2023/03/03 10:55:09;;;;;;;41.90;22.33;;;2.70;99.90;;;;;;5002021;28;20172;-82
2023/03/03 10:57:52;;;;;;;41.13;23.73;;;2.80;99.90;;;;;;5001805;28;20262;-82
2023/03/03 11:00:28;;;;;;;44.90;21.03;;;2.80;99.90;;;;;;5019349;28;20636;-82
2023/03/03 11:03:09;;;;;;;35.70;21.37;;;2.80;99.90;;;;;;5000979;28;20290;-82
2023/03/03 11:05:46;;;;;;;39.53;21.57;;;2.80;99.90;;;;;;5001339;28;20200;-82
2023/03/03 11:08:42;;;;;;;38.40;20.67;;;2.90;99.90;;;;;;5018846;28;20251;-82
2023/03/03 11:11:22;;;;;;;37.10;20.60;;;2.90;99.90;;;;;;5000931;28;20250;-82
2023/03/03 11:14:18;;;;;;;37.63;20.37;;;2.90;99.90;;;;;;5018537;28;20194;-82
2023/03/03 11:16:52;;;;;;;34.57;19.37;;;3.00;99.90;;;;;;4974116;28;20555;-82
2023/03/03 11:19:31;;;;;;;40.17;20.87;;;3.00;99.90;;;;;;5000899;28;20576;-82
2023/03/03 11:22:19;;;;;;;40.80;19.97;;;3.10;99.90;;;;;;5000952;28;20210;-83
2023/03/03 11:24:50;;;;;;;39.17;19.20;;;3.10;99.90;;;;;;4991598;28;20208;-81
2023/03/03 11:27:32;;;;;;;33.77;18.47;;;3.20;99.90;;;;;;5002750;28;20168;-81
2023/03/03 11:30:25;;;;;;;35.60;19.30;;;3.20;99.90;;;;;;5003654;28;20534;-81
2023/03/03 11:33:10;;;;;;;33.93;17.13;;;3.20;99.90;;;;;;5001680;28;20334;-81
2023/03/03 11:35:50;;;;;;;40.50;19.13;;;3.30;99.90;;;;;;5000865;28;20645;-81
2023/03/03 11:38:43;;;;;;;36.13;18.83;;;3.30;99.90;;;;;;5000831;28;20183;-81
2023/03/03 11:41:22;;;;;;;41.03;20.27;;;3.40;99.90;;;;;;5001461;28;20176;-81
2023/03/03 11:43:57;;;;;;;39.33;19.23;;;3.40;99.90;;;;;;5000739;28;20294;-81
2023/03/03 11:46:35;;;;;;;41.57;19.53;;;3.40;99.90;;;;;;5000543;28;20191;-81
2023/03/03 11:49:21;;;;;;;37.90;19.07;;;3.40;99.90;;;;;;5018048;28;20222;-81
2023/03/03 11:51:55;;;;;;;38.73;19.33;;;3.50;99.90;;;;;;4999559;28;20159;-80
2023/03/03 11:54:27;;;;;;;38.57;20.00;;;3.50;99.90;;;;;;5000755;28;20571;-85
2023/03/03 11:57:15;;;;;;;42.47;20.57;;;3.40;99.90;;;;;;4999751;28;20207;-81
2023/03/03 12:00:13;;;;;;;50.30;21.53;;;3.50;99.90;;;;;;4999723;28;20171;-81
2023/03/03 12:02:58;;;;;;;46.47;22.60;;;3.50;99.90;;;;;;4996654;28;20220;-81
2023/03/03 12:06:01;;;;;;;42.90;22.07;;;3.50;99.90;;;;;;4999688;28;20656;-81
2023/03/03 12:08:48;;;;;;;60.20;23.70;;;3.50;99.90;;;;;;4999674;28;20164;-81
2023/03/03 12:11:30;;;;;;;45.90;22.07;;;3.50;99.90;;;;;;4999530;28;20250;-81
2023/03/03 12:14:02;;;;;;;40.93;21.20;;;3.50;99.90;;;;;;5016856;28;20196;-81
2023/03/03 12:16:44;;;;;;;49.23;23.50;;;3.60;99.90;;;;;;4999398;28;20172;-81
2023/03/03 12:19:41;;;;;;;45.43;22.73;;;3.50;99.90;;;;;;4999376;28;20183;-81
2023/03/03 12:22:07;;;;;;;46.20;22.87;;;3.60;99.90;;;;;;4999541;28;20202;-81
2023/03/03 12:24:47;;;;;;;46.60;21.87;;;3.60;99.90;;;;;;4999407;28;20199;-81
2023/03/03 12:27:32;;;;;;;46.43;22.67;;;3.60;99.90;;;;;;4999544;28;20172;-81
2023/03/03 12:30:09;;;;;;;49.70;22.27;;;3.60;99.90;;;;;;4999124;28;20188;-81
2023/03/03 12:32:47;;;;;;;46.20;22.80;;;3.70;99.90;;;;;;4998945;28;20229;-81
2023/03/03 12:35:31;;;;;;;42.93;20.67;;;3.80;99.90;;;;;;4999608;28;20234;-81
2023/03/03 12:38:21;;;;;;;52.63;22.67;;;3.80;99.90;;;;;;4999205;28;20164;-81
2023/03/03 12:41:39;;;;;;;53.80;23.83;;;3.80;99.90;;;;;;5016729;28;20164;-81
2023/03/03 12:44:44;;;;;;;43.50;22.07;;;3.80;99.90;;;;;;5008519;28;20216;-81
2023/03/03 12:47:26;;;;;;;44.30;22.33;;;3.90;99.90;;;;;;5005249;28;20188;-81
2023/03/03 12:50:09;;;;;;;47.70;22.13;;;3.90;99.90;;;;;;5001857;28;20168;-81
2023/03/03 12:52:35;;;;;;;46.17;21.77;;;3.90;99.90;;;;;;5003147;28;20195;-81
2023/03/03 12:55:30;;;;;;;48.00;21.43;;;3.90;99.90;;;;;;5001499;28;20645;-80
2023/03/03 12:58:23;;;;;;;47.93;21.50;;;4.00;99.90;;;;;;4999739;28;20644;-80
2023/03/03 13:01:07;;;;;;;41.83;21.20;;;3.90;99.90;;;;;;4999040;28;20196;-80
2023/03/03 13:04:04;;;;;;;42.93;19.50;;;3.90;99.90;;;;;;5015927;28;20573;-81